createdAt,value
2023-01-08T00:01:34.414Z,44.30
2023-01-08T00:04:13.534Z,46.77
2023-01-08T00:06:50.544Z,42.93
2023-01-08T00:09:22.359Z,49.73
2023-01-08T00:11:53.747Z,43.73
2023-01-08T00:14:23.670Z,46.43
2023-01-08T00:16:55.126Z,48.53
2023-01-08T00:19:26.455Z,45.70
2023-01-08T00:22:01.221Z,47.73
2023-01-08T00:24:31.402Z,49.87
2023-01-08T00:27:00.639Z,48.87
2023-01-08T00:29:42.729Z,48.80
2023-01-08T00:32:14.022Z,47.47
2023-01-08T00:34:43.379Z,56.03
2023-01-08T00:37:21.141Z,45.80
2023-01-08T00:39:50.550Z,49.67
2023-01-08T00:42:23.325Z,47.53
2023-01-08T00:44:55.180Z,46.73
2023-01-08T00:47:23.572Z,54.30
2023-01-08T00:49:53.599Z,51.63
2023-01-08T00:52:31.415Z,47.03
2023-01-08T00:55:00.939Z,47.87
2023-01-08T00:57:37.757Z,48.87
2023-01-08T01:00:15.021Z,51.50
2023-01-08T01:02:44.116Z,49.50
2023-01-08T01:05:15.516Z,53.90
2023-01-08T01:07:50.230Z,49.40
2023-01-08T01:10:33.439Z,44.80
2023-01-08T01:13:02.502Z,47.33
2023-01-08T01:15:38.960Z,48.97
2023-01-08T01:18:10.127Z,53.93
2023-01-08T01:20:42.744Z,46.43
2023-01-08T01:23:20.189Z,51.30
2023-01-08T01:25:52.147Z,48.50
2023-01-08T01:28:21.852Z,48.50
2023-01-08T01:30:58.811Z,49.70
2023-01-08T01:33:30.786Z,51.43
2023-01-08T01:36:09.014Z,45.07
2023-01-08T01:38:47.093Z,49.30
2023-01-08T01:41:24.406Z,53.57
2023-01-08T01:44:04.151Z,51.07
2023-01-08T01:46:39.563Z,51.53
2023-01-08T01:49:11.257Z,49.90
2023-01-08T01:51:44.346Z,56.07
2023-01-08T01:54:27.627Z,50.10
2023-01-08T01:56:57.777Z,59.87
2023-01-08T01:59:27.858Z,53.10
2023-01-08T02:01:58.679Z,47.60
2023-01-08T02:04:32.328Z,49.20
2023-01-08T02:07:10.743Z,46.93
2023-01-08T02:09:58.427Z,48.43
2023-01-08T02:12:31.922Z,47.60
2023-01-08T02:15:09.086Z,48.23
2023-01-08T02:17:42.006Z,44.50
2023-01-08T02:20:17.015Z,50.83
2023-01-08T02:23:16.800Z,49.07
2023-01-08T02:26:32.025Z,47.87
2023-01-08T02:29:17.021Z,46.77
2023-01-08T02:31:52.863Z,49.00
2023-01-08T02:34:24.247Z,47.90
2023-01-08T02:37:04.203Z,53.20
2023-01-08T02:39:47.040Z,50.53
2023-01-08T02:42:26.462Z,49.60
2023-01-08T02:45:00.606Z,45.77
2023-01-08T02:47:41.312Z,51.50
2023-01-08T02:50:18.006Z,48.20
2023-01-08T02:53:08.385Z,48.53
2023-01-08T02:55:45.486Z,41.53
2023-01-08T02:58:19.567Z,42.00
2023-01-08T03:00:58.295Z,48.27
2023-01-08T03:03:31.025Z,42.83
2023-01-08T03:06:08.047Z,47.30
2023-01-08T03:08:48.372Z,47.87
2023-01-08T03:11:30.416Z,46.97
2023-01-08T03:14:10.949Z,46.27
2023-01-08T03:16:51.294Z,49.50
2023-01-08T03:19:40.811Z,45.87
2023-01-08T03:22:14.949Z,50.17
2023-01-08T03:24:50.806Z,43.20
2023-01-08T03:27:33.907Z,46.80
2023-01-08T03:30:15.425Z,48.47
2023-01-08T03:32:48.825Z,49.00
2023-01-08T03:35:24.367Z,48.10
2023-01-08T03:37:58.656Z,45.03
2023-01-08T03:40:39.777Z,48.33
2023-01-08T03:43:10.103Z,41.57
2023-01-08T03:45:40.690Z,47.97
2023-01-08T03:48:13.588Z,43.90
2023-01-08T03:50:44.914Z,47.10
2023-01-08T03:53:14.865Z,51.83
2023-01-08T03:55:44.410Z,46.07
2023-01-08T03:58:21.742Z,50.90
2023-01-08T04:00:52.770Z,43.27
2023-01-08T04:03:25.908Z,49.70
2023-01-08T04:06:00.134Z,51.43
2023-01-08T04:08:31.601Z,47.40
2023-01-08T04:11:08.000Z,51.43
2023-01-08T04:13:41.870Z,52.47
2023-01-08T04:16:18.223Z,46.97
2023-01-08T04:19:04.694Z,46.60
2023-01-08T04:21:32.739Z,48.20
2023-01-08T04:24:02.291Z,47.03
2023-01-08T04:26:30.648Z,48.33
2023-01-08T04:29:04.701Z,43.83
2023-01-08T04:31:35.007Z,46.77
2023-01-08T04:34:15.390Z,50.10
2023-01-08T04:36:46.135Z,51.17
2023-01-08T04:39:24.129Z,47.97
2023-01-08T04:41:52.695Z,52.60
2023-01-08T04:44:27.033Z,52.50
2023-01-08T04:46:56.876Z,47.93
2023-01-08T04:49:31.307Z,44.90
2023-01-08T04:51:59.360Z,48.47
2023-01-08T04:54:33.600Z,49.13
2023-01-08T04:57:01.694Z,50.67
2023-01-08T04:59:33.830Z,45.83
2023-01-08T05:02:05.851Z,49.03
2023-01-08T05:04:50.198Z,44.23
2023-01-08T05:07:26.651Z,46.50
2023-01-08T05:10:03.466Z,46.13
2023-01-08T05:12:34.031Z,49.23
2023-01-08T05:15:04.081Z,46.03
2023-01-08T05:17:32.732Z,48.00
2023-01-08T05:20:04.753Z,49.50
2023-01-08T05:22:41.015Z,46.23
2023-01-08T05:25:18.653Z,45.43
2023-01-08T05:27:50.474Z,46.53
2023-01-08T05:31:01.861Z,48.60
2023-01-08T05:33:30.718Z,49.37
2023-01-08T05:36:06.607Z,46.93
2023-01-08T05:38:37.479Z,49.20
2023-01-08T05:41:06.997Z,47.87
2023-01-08T05:43:43.969Z,46.83
2023-01-08T05:46:12.753Z,51.87
2023-01-08T05:48:53.560Z,51.20
2023-01-08T05:51:34.554Z,47.43
2023-01-08T05:54:05.461Z,45.53
2023-01-08T05:56:36.379Z,45.70
2023-01-08T05:59:04.812Z,43.97
2023-01-08T06:01:37.686Z,50.77
2023-01-08T06:04:09.698Z,51.00
2023-01-08T06:06:43.976Z,45.33
2023-01-08T06:09:14.565Z,49.47
2023-01-08T06:11:43.926Z,49.33
2023-01-08T06:14:19.615Z,49.37
2023-01-08T06:16:49.052Z,43.97
2023-01-08T06:19:24.057Z,45.17
2023-01-08T06:22:01.150Z,43.73
2023-01-08T06:24:32.482Z,46.13
2023-01-08T06:27:13.387Z,48.43
2023-01-08T06:29:44.333Z,46.40
2023-01-08T06:32:17.999Z,46.07
2023-01-08T06:34:54.259Z,46.93
2023-01-08T06:37:36.877Z,40.60
2023-01-08T06:40:08.727Z,42.83
2023-01-08T06:42:47.936Z,49.97
2023-01-08T06:45:21.500Z,45.63
2023-01-08T06:47:51.437Z,46.33
2023-01-08T06:50:22.530Z,44.47
2023-01-08T06:52:59.506Z,46.43
2023-01-08T06:55:28.502Z,49.97
2023-01-08T06:58:06.210Z,51.57
2023-01-08T07:00:35.081Z,48.53
2023-01-08T07:03:05.058Z,53.73
2023-01-08T07:05:34.078Z,40.43
2023-01-08T07:08:20.336Z,48.67
2023-01-08T07:10:51.980Z,41.20
2023-01-08T07:13:25.699Z,43.70
2023-01-08T07:15:56.862Z,49.53
2023-01-08T07:18:31.737Z,44.37
2023-01-08T07:21:02.575Z,41.83
2023-01-08T07:23:49.869Z,42.40
2023-01-08T07:26:21.328Z,39.40
2023-01-08T07:28:51.388Z,42.40
2023-01-08T07:31:19.872Z,46.73
2023-01-08T07:33:58.081Z,39.60
2023-01-08T07:36:33.961Z,42.07
2023-01-08T07:39:18.307Z,41.00
2023-01-08T07:41:53.596Z,38.43
2023-01-08T07:44:30.638Z,49.43
2023-01-08T07:47:01.648Z,43.33
2023-01-08T07:49:31.195Z,38.00
2023-01-08T07:52:00.121Z,39.53
2023-01-08T07:54:45.635Z,41.67
2023-01-08T07:57:13.936Z,42.37
2023-01-08T07:59:48.186Z,41.43
2023-01-08T08:02:21.050Z,43.60
2023-01-08T08:04:50.553Z,43.20
2023-01-08T08:07:18.920Z,39.07
2023-01-08T08:10:00.253Z,42.23
2023-01-08T08:12:36.376Z,42.73
2023-01-08T08:15:09.088Z,40.47
2023-01-08T08:17:40.827Z,40.10
2023-01-08T08:20:15.820Z,38.53
2023-01-08T08:22:47.789Z,43.73
2023-01-08T08:25:22.334Z,42.27
2023-01-08T08:27:51.173Z,41.67
2023-01-08T08:30:30.324Z,44.97
2023-01-08T08:33:01.163Z,47.27
2023-01-08T08:35:34.222Z,44.63
2023-01-08T08:38:11.703Z,43.27
2023-01-08T08:40:56.708Z,44.87
2023-01-08T08:43:41.004Z,42.53
2023-01-08T08:46:13.405Z,41.10
2023-01-08T08:48:45.668Z,43.20
2023-01-08T08:51:18.999Z,43.20
2023-01-08T08:53:52.880Z,44.50
2023-01-08T08:56:32.892Z,44.23
2023-01-08T08:59:07.106Z,44.87
2023-01-08T09:01:38.743Z,40.60
2023-01-08T09:04:18.162Z,47.07
2023-01-08T09:06:56.558Z,47.43
2023-01-08T09:09:31.468Z,43.90
2023-01-08T09:12:07.274Z,46.10
2023-01-08T09:14:39.224Z,44.00
2023-01-08T09:17:10.086Z,41.00
2023-01-08T09:19:40.032Z,45.07
2023-01-08T09:22:09.054Z,44.40
2023-01-08T09:24:38.728Z,40.43
2023-01-08T09:27:11.074Z,47.30
2023-01-08T09:29:40.609Z,41.13
2023-01-08T09:32:10.638Z,44.87
2023-01-08T09:34:41.245Z,39.77
2023-01-08T09:37:10.290Z,44.53
2023-01-08T09:39:41.130Z,41.97
2023-01-08T09:42:17.892Z,38.83
2023-01-08T09:44:47.605Z,42.97
2023-01-08T09:47:26.344Z,42.80
2023-01-08T09:49:58.572Z,41.80
2023-01-08T09:52:30.425Z,41.93
2023-01-08T09:55:02.430Z,47.00
2023-01-08T09:57:32.956Z,46.83
2023-01-08T10:00:08.032Z,40.37
2023-01-08T10:02:39.072Z,47.53
2023-01-08T10:05:21.973Z,41.10
2023-01-08T10:07:51.127Z,44.53
2023-01-08T10:10:22.947Z,44.30
2023-01-08T10:12:58.317Z,43.70
2023-01-08T10:15:27.891Z,41.00
2023-01-08T10:18:02.796Z,36.80
2023-01-08T10:20:37.898Z,38.63
2023-01-08T10:23:14.347Z,36.70
2023-01-08T10:25:58.553Z,37.67
2023-01-08T10:28:38.249Z,37.30
2023-01-08T10:31:17.784Z,38.20
2023-01-08T10:33:53.388Z,36.27
2023-01-08T10:36:30.585Z,36.40
2023-01-08T10:39:10.353Z,40.80
2023-01-08T10:41:40.937Z,36.63
2023-01-08T10:44:20.317Z,35.53
2023-01-08T10:46:53.534Z,39.43
2023-01-08T10:49:28.809Z,36.63
2023-01-08T10:51:58.498Z,37.70
2023-01-08T10:54:35.797Z,36.67
2023-01-08T10:57:46.547Z,37.17
2023-01-08T11:00:29.659Z,37.53
2023-01-08T11:03:04.801Z,36.27
2023-01-08T11:05:38.165Z,38.83
2023-01-08T11:08:23.175Z,38.07
2023-01-08T11:11:02.856Z,39.00
2023-01-08T11:13:32.944Z,34.80
2023-01-08T11:16:11.329Z,43.83
2023-01-08T11:18:55.853Z,37.43
2023-01-08T11:21:30.963Z,37.70
2023-01-08T11:24:24.532Z,38.20
2023-01-08T11:27:00.912Z,34.00
2023-01-08T11:29:42.300Z,38.00
2023-01-08T11:32:37.394Z,38.37
2023-01-08T11:35:13.775Z,31.97
2023-01-08T11:37:52.901Z,37.37
2023-01-08T11:40:34.741Z,36.17
2023-01-08T11:43:22.099Z,39.23
2023-01-08T11:46:02.654Z,35.00
2023-01-08T11:48:51.661Z,34.67
2023-01-08T11:51:40.693Z,32.03
2023-01-08T11:54:22.206Z,31.10
2023-01-08T11:57:22.783Z,32.50
2023-01-08T12:00:00.610Z,30.10
2023-01-08T12:02:42.549Z,26.27
2023-01-08T12:05:27.109Z,31.50
2023-01-08T12:08:04.759Z,35.73
2023-01-08T12:11:00.714Z,34.77
2023-01-08T12:13:52.122Z,25.70
2023-01-08T12:16:45.551Z,29.60
2023-01-08T12:19:31.038Z,30.63
2023-01-08T12:22:32.425Z,29.67
2023-01-08T12:25:56.784Z,27.80
2023-01-08T12:29:04.914Z,32.77
2023-01-08T12:32:13.945Z,28.60
2023-01-08T12:35:10.796Z,25.90
2023-01-08T12:37:51.947Z,26.93
2023-01-08T12:40:26.382Z,27.67
2023-01-08T12:43:01.303Z,31.63
2023-01-08T12:45:40.794Z,38.20
2023-01-08T12:48:14.003Z,38.80
2023-01-08T12:50:53.580Z,35.83
2023-01-08T12:53:42.032Z,31.67
2023-01-08T12:56:18.176Z,36.43
2023-01-08T12:59:11.152Z,38.70
2023-01-08T13:01:49.437Z,50.33
2023-01-08T13:04:28.779Z,37.20
2023-01-08T13:07:05.020Z,39.63
2023-01-08T13:09:41.162Z,38.70
2023-01-08T13:12:14.580Z,37.27
2023-01-08T13:17:37.562Z,39.63
2023-01-08T13:20:08.832Z,43.40
2023-01-08T13:22:38.823Z,40.17
2023-01-08T13:25:36.135Z,44.77
2023-01-08T13:28:27.652Z,34.33
2023-01-08T13:31:02.928Z,42.43
2023-01-08T13:33:45.881Z,43.33
2023-01-08T13:36:24.490Z,36.23
2023-01-08T13:39:16.376Z,38.70
2023-01-08T13:42:01.289Z,40.97
2023-01-08T13:44:31.668Z,46.57
2023-01-08T13:47:06.281Z,38.77
2023-01-08T13:49:42.914Z,40.47
2023-01-08T13:52:29.321Z,33.90
2023-01-08T13:55:07.729Z,38.90
2023-01-08T13:57:57.118Z,35.33
2023-01-08T14:00:27.626Z,32.80
2023-01-08T14:02:59.434Z,39.57
2023-01-08T14:05:37.827Z,33.57
2023-01-08T14:08:19.479Z,38.10
2023-01-08T14:10:53.365Z,34.90
2023-01-08T14:13:39.083Z,38.03
2023-01-08T14:16:08.505Z,39.57
2023-01-08T14:18:37.679Z,43.53
2023-01-08T14:21:07.434Z,44.70
2023-01-08T14:23:39.406Z,39.30
2023-01-08T14:26:17.156Z,39.87
2023-01-08T14:29:01.622Z,29.50
2023-01-08T14:31:32.805Z,35.27
2023-01-08T14:34:11.503Z,28.57
2023-01-08T14:36:41.607Z,32.97
2023-01-08T14:39:22.729Z,26.53
2023-01-08T14:42:18.027Z,27.00
2023-01-08T14:44:57.971Z,27.57
2023-01-08T14:47:30.892Z,30.20
2023-01-08T14:50:08.302Z,28.70
2023-01-08T14:52:52.457Z,22.13
2023-01-08T14:55:28.669Z,21.00
2023-01-08T14:58:07.146Z,24.67
2023-01-08T15:00:41.516Z,25.80
2023-01-08T15:04:08.074Z,23.37
2023-01-08T15:06:45.453Z,25.67
2023-01-08T15:09:22.277Z,22.77
2023-01-08T15:12:00.608Z,24.87
2023-01-08T15:14:33.408Z,24.63
2023-01-08T15:17:11.598Z,26.97
2023-01-08T15:19:41.654Z,19.07
2023-01-08T15:22:17.401Z,19.83
2023-01-08T15:24:55.620Z,19.40
2023-01-08T15:27:37.018Z,22.90
2023-01-08T15:30:11.748Z,21.60
2023-01-08T15:32:48.952Z,23.40
2023-01-08T15:35:27.346Z,22.53
2023-01-08T15:37:58.317Z,24.10
2023-01-08T15:40:29.975Z,26.03
2023-01-08T15:43:12.788Z,27.37
2023-01-08T15:45:43.844Z,24.20
2023-01-08T15:48:36.054Z,28.80
2023-01-08T15:51:07.499Z,22.37
2023-01-08T15:53:44.219Z,28.00
2023-01-08T15:56:15.618Z,28.20
2023-01-08T15:58:45.900Z,29.27
2023-01-08T16:01:17.229Z,27.40
2023-01-08T16:03:57.537Z,27.73
2023-01-08T16:06:35.449Z,31.17
2023-01-08T16:09:12.820Z,26.23
2023-01-08T16:11:44.012Z,34.40
2023-01-08T16:14:16.772Z,31.33
2023-01-08T16:16:57.153Z,36.13
2023-01-08T16:19:40.558Z,36.53
2023-01-08T16:22:10.046Z,32.70
2023-01-08T16:24:42.105Z,30.53
2023-01-08T16:27:11.628Z,30.77
2023-01-08T16:29:41.694Z,31.37
2023-01-08T16:32:10.722Z,32.23
2023-01-08T16:34:49.676Z,33.83
2023-01-08T16:37:31.427Z,33.70
2023-01-08T16:40:10.004Z,29.40
2023-01-08T16:42:54.114Z,31.93
2023-01-08T16:45:36.414Z,30.70
2023-01-08T16:48:09.603Z,30.37
2023-01-08T16:50:42.481Z,33.40
2023-01-08T16:53:24.288Z,28.00
2023-01-08T16:55:55.532Z,30.97
2023-01-08T16:58:27.884Z,33.13
2023-01-08T17:01:06.179Z,32.33
2023-01-08T17:03:36.821Z,29.73
2023-01-08T17:06:12.576Z,29.77
2023-01-08T17:08:43.853Z,30.37
2023-01-08T17:11:16.084Z,29.00
2023-01-08T17:13:47.860Z,26.80
2023-01-08T17:16:28.272Z,33.40
2023-01-08T17:18:58.597Z,28.00
2023-01-08T17:21:32.682Z,28.00
2023-01-08T17:24:11.216Z,27.50
2023-01-08T17:26:52.528Z,24.90
2023-01-08T17:29:30.998Z,26.20
2023-01-08T17:32:17.788Z,27.67
2023-01-08T17:34:52.333Z,25.70
2023-01-08T17:37:45.544Z,26.60
2023-01-08T17:40:20.700Z,24.20
2023-01-08T17:42:53.473Z,26.37
2023-01-08T17:45:25.448Z,24.00
2023-01-08T17:47:56.639Z,20.97
2023-01-08T17:50:27.528Z,19.70
2023-01-08T17:53:00.704Z,21.60
2023-01-08T17:55:42.652Z,26.17
2023-01-08T17:58:28.352Z,45.73
2023-01-08T18:01:00.635Z,32.50
2023-01-08T18:03:39.800Z,26.47
2023-01-08T18:06:29.833Z,27.03
2023-01-08T18:09:11.302Z,24.93
2023-01-08T18:11:52.408Z,27.77
2023-01-08T18:14:28.169Z,24.10
2023-01-08T18:16:57.873Z,22.57
2023-01-08T18:19:37.178Z,19.60
2023-01-08T18:22:05.306Z,17.83
2023-01-08T18:24:46.788Z,18.67
2023-01-08T18:27:27.404Z,21.33
2023-01-08T18:29:58.313Z,24.17
2023-01-08T18:32:30.679Z,22.17
2023-01-08T18:35:01.601Z,20.60
2023-01-08T18:37:32.805Z,20.70
2023-01-08T18:40:10.672Z,18.53
2023-01-08T18:42:48.598Z,18.77
2023-01-08T18:45:19.136Z,17.37
2023-01-08T18:47:55.415Z,16.77
2023-01-08T18:50:28.207Z,17.53
2023-01-08T18:52:58.502Z,17.80
2023-01-08T18:55:39.697Z,16.60
2023-01-08T18:58:20.979Z,21.50
2023-01-08T19:00:51.466Z,24.10
2023-01-08T19:03:23.506Z,21.37
2023-01-08T19:05:54.850Z,24.60
2023-01-08T19:08:39.981Z,21.13
2023-01-08T19:11:15.448Z,26.00
2023-01-08T19:13:47.926Z,21.20
2023-01-08T19:16:26.026Z,23.17
2023-01-08T19:19:01.649Z,28.90
2023-01-08T19:21:44.585Z,27.70
2023-01-08T19:24:27.380Z,30.87
2023-01-08T19:27:00.032Z,29.60
2023-01-08T19:29:38.504Z,20.93
2023-01-08T19:32:08.163Z,28.60
2023-01-08T19:34:46.971Z,23.23
2023-01-08T19:37:26.284Z,22.03
2023-01-08T19:40:00.192Z,24.90
2023-01-08T19:42:54.481Z,21.57
2023-01-08T19:45:26.027Z,22.27
2023-01-08T19:47:56.655Z,24.30
2023-01-08T19:50:26.967Z,22.60
2023-01-08T19:53:09.751Z,22.30
2023-01-08T19:55:49.839Z,22.63
2023-01-08T19:58:34.938Z,22.30
2023-01-08T20:01:13.831Z,23.23
2023-01-08T20:03:49.289Z,21.97
2023-01-08T20:06:38.521Z,20.43
2023-01-08T20:09:15.131Z,24.53
2023-01-08T20:11:44.920Z,24.10
2023-01-08T20:14:21.656Z,20.53
2023-01-08T20:16:58.064Z,25.93
2023-01-08T20:19:32.120Z,23.53
2023-01-08T20:22:01.456Z,24.60
2023-01-08T20:24:37.053Z,21.53
2023-01-08T20:27:08.348Z,22.60
2023-01-08T20:29:40.685Z,26.57
2023-01-08T20:32:23.663Z,22.20
2023-01-08T20:34:56.117Z,27.77
2023-01-08T20:37:29.748Z,26.77
2023-01-08T20:40:13.890Z,24.17
2023-01-08T20:42:49.575Z,23.80
2023-01-08T20:45:42.004Z,22.20
2023-01-08T20:48:15.779Z,26.40
2023-01-08T20:50:48.037Z,20.50
2023-01-08T20:53:25.896Z,21.50
2023-01-08T20:56:07.697Z,25.00
2023-01-08T20:58:48.550Z,30.07
2023-01-08T21:01:36.762Z,25.10
2023-01-08T21:04:12.650Z,24.67
2023-01-08T21:06:43.796Z,21.50
2023-01-08T21:09:27.203Z,25.70
2023-01-08T21:11:57.002Z,23.20
2023-01-08T21:14:26.812Z,22.30
2023-01-08T21:17:00.767Z,23.63
2023-01-08T21:19:30.847Z,22.07
2023-01-08T21:22:00.469Z,21.97
2023-01-08T21:24:29.449Z,22.20
2023-01-08T21:27:06.380Z,20.70
2023-01-08T21:29:36.721Z,21.10
2023-01-08T21:32:23.113Z,26.27
2023-01-08T21:34:54.565Z,22.33
2023-01-08T21:37:28.934Z,20.43
2023-01-08T21:39:58.343Z,24.00
2023-01-08T21:42:45.268Z,26.17
2023-01-08T21:45:31.359Z,21.67
2023-01-08T21:48:03.748Z,25.70
2023-01-08T21:50:32.612Z,23.30
2023-01-08T21:53:19.455Z,24.17
2023-01-08T21:55:51.650Z,25.60
2023-01-08T21:58:25.468Z,22.53
2023-01-08T22:01:04.183Z,21.37
2023-01-08T22:03:44.080Z,28.53
2023-01-08T22:06:17.055Z,24.67
2023-01-08T22:08:48.281Z,28.63
2023-01-08T22:11:19.556Z,23.97
2023-01-08T22:13:47.684Z,24.17
2023-01-08T22:16:16.134Z,23.30
2023-01-08T22:18:49.012Z,24.20
2023-01-08T22:21:25.467Z,25.33
2023-01-08T22:23:57.123Z,24.13
2023-01-08T22:26:26.721Z,25.17
2023-01-08T22:28:56.542Z,22.10
2023-01-08T22:31:26.325Z,22.83
2023-01-08T22:34:02.418Z,23.80
2023-01-08T22:36:31.130Z,24.00
2023-01-08T22:39:12.431Z,26.10
2023-01-08T22:41:44.573Z,27.43
2023-01-08T22:44:14.904Z,23.33
2023-01-08T22:46:44.175Z,23.10
2023-01-08T22:49:22.870Z,25.13
2023-01-08T22:51:52.079Z,22.27
2023-01-08T22:54:32.463Z,24.37
2023-01-08T22:57:01.973Z,27.90
2023-01-08T22:59:31.372Z,21.37
2023-01-08T23:02:02.655Z,24.07
2023-01-08T23:04:41.130Z,22.37
2023-01-08T23:07:12.125Z,23.90
2023-01-08T23:09:52.510Z,25.13
2023-01-08T23:12:21.121Z,20.47
2023-01-08T23:14:58.524Z,25.20
2023-01-08T23:17:29.625Z,22.13
2023-01-08T23:19:59.202Z,28.90
2023-01-08T23:22:28.725Z,28.60
2023-01-08T23:24:58.284Z,25.70
2023-01-08T23:27:32.263Z,25.67
2023-01-08T23:30:03.230Z,26.90
2023-01-08T23:32:33.003Z,28.10
2023-01-08T23:35:07.279Z,27.67
2023-01-08T23:37:36.718Z,28.63
2023-01-08T23:40:07.521Z,23.20
2023-01-08T23:42:36.735Z,25.70
2023-01-08T23:45:05.580Z,27.23
2023-01-08T23:47:34.910Z,27.67
2023-01-08T23:50:11.758Z,28.20
2023-01-08T23:52:41.216Z,27.83
2023-01-08T23:55:13.208Z,25.80
2023-01-08T23:57:44.572Z,24.27
